Terminal Aerodrome Forecast
Issued by NWS

Current Version | Previous Version | Text Only | Print | Product List | Glossary On
Versions: 1 2 3 4 5 6 7 8 9 10 11 12 13 14 15 16 17 18 19 20 21 22 23 24 25 26 27 28 29 30 31
000
FTUS41 KILN 222300
TAFLUK
TAF
KLUK 222339Z 2300/2324 30003KT P6SM SCT050
     FM230600 00000KT 3SM BR FEW025 SCT060
     FM230800 00000KT 1SM BR SCT060 BKN250
      TEMPO 2308/2312 1/4SM FG VV002
     FM231300 00000KT 4SM BR SCT025
     FM231500 30004KT P6SM SCT040
     FM231800 31005KT P6SM BKN040
     FM232300 00000KT P6SM VCSH BKN040=

USA.gov is the U.S. government's official web portal to all federal, state and local government web resources and services.